Terminal Aerodrome Forecast
Issued by NWS

Home | Current Version | Previous Version | Text Only | Print | Product List | Glossary On
Versions: 1 2 3 4 5 6 7 8 9 10 11 12
000
FTUS45 KTFX 242300
TAFBZN
TAF
KBZN 242338Z 2500/2524 35011KT P6SM SCT180
     FM250200 VRB06KT P6SM SKC
     FM252000 28012KT P6SM SKC=

USA.gov is the U.S. government's official web portal to all federal, state and local government web resources and services.